ΕΜΥ, Εθνική Μετεωρολογική Υπηρεσία - Δελτία Καιρού, Προγνώσεις

ΑΕΡΟΝΑΥΤΙΛΙΑ

GREEK AIRPORTS CODES

TAF LGKA 050400Z 0506/0515 34008KT 9999 FEW008 BKN020 OVC070 PROB30 TEMPO 0506/0515 3000 SN SCT005 OVC018=

EUROPEAN AIRPORTS CODES